Terminal Aerodrome Forecast
Issued by NWS Northern Indiana

Home | Current Version | Previous Version | Text Only | Print | Product List | Glossary On
Versions: 1 2 3 4 5 6 7 8 9 10 11 12 13 14 15 16 17 18
550
FTUS43 KIWX 241133
TAFFWA
TAF
KFWA 241133Z 2412/2512 14010KT 6SM BR SCT025 BKN080 WS020/21045KT
     FM241400 18014G22KT P6SM BKN020
     FM242100 21014G22KT P6SM VCSH BKN035
      TEMPO 2423/2503 28025G45KT 1SM +TSRA OVC015CB
     FM250300 24015G24KT 5SM -SHRA OVC025
     FM250900 26016G25KT 6SM -SHSN BKN025=

USA.gov is the U.S. government's official web portal to all federal, state and local government web resources and services.